DTTB

Sidi Ahmed Air Base Airport

Sidi Ahmed, Tunisia
METAR DTTB 221500Z 08003KT 030V110 9999 SCT020 17/15 Q1015
Observed Flight Rules
May-22 @ 15:00 UTC (21 minutes ago) Visual Flight Rules
Wind Visibility Clouds
80° at 3 knots 10,000+ meters
  • Scattered at 2,000' AGL
Temperatures Readings
Current 17°C / 63°F
Dewpoint 15°C / 59°F
Humidity 88%
Altimeter 29.97" Hg
Pressure 1015 hPa
Elevation 3
METAR DTTB 221500Z 08003KT 030V110 9999 SCT020 17/15 Q1015
Observed Flight Rules
May-22 @ 15:00 UTC
(21 minutes ago)
VFR
Wind Visibility
80° at 3 knots 10,000+ meters
Clouds
  • Scattered at 2,000' AGL
Temperature Dewpoint
17°C / 63°F 15°C / 59°F
Humidity Altimeter Pressure
88% 29.97" Hg 1015 hPa